sensor_id;sensor_type;location;lat;lon;timestamp;temperature;humidity
7654;DHT22;3869;48.406;10.774;2023-04-15T00:01:08;6.60;99.90
7654;DHT22;3869;48.406;10.774;2023-04-15T00:03:38;6.60;99.90
7654;DHT22;3869;48.406;10.774;2023-04-15T00:06:07;6.50;99.90
7654;DHT22;3869;48.406;10.774;2023-04-15T00:08:35;6.50;99.90
7654;DHT22;3869;48.406;10.774;2023-04-15T00:11:03;6.50;99.90
7654;DHT22;3869;48.406;10.774;2023-04-15T00:13:31;6.50;99.90
7654;DHT22;3869;48.406;10.774;2023-04-15T00:16:00;6.50;99.90
7654;DHT22;3869;48.406;10.774;2023-04-15T00:18:28;6.50;99.90
7654;DHT22;3869;48.406;10.774;2023-04-15T00:20:58;6.50;99.90
7654;DHT22;3869;48.406;10.774;2023-04-15T00:23:26;6.50;99.90
7654;DHT22;3869;48.406;10.774;2023-04-15T00:25:54;6.50;99.90
7654;DHT22;3869;48.406;10.774;2023-04-15T00:28:22;6.40;99.90
7654;DHT22;3869;48.406;10.774;2023-04-15T00:30:50;6.30;99.90
7654;DHT22;3869;48.406;10.774;2023-04-15T00:33:18;6.30;99.90
7654;DHT22;3869;48.406;10.774;2023-04-15T00:35:46;6.30;99.90
7654;DHT22;3869;48.406;10.774;2023-04-15T00:38:16;6.30;99.90
7654;DHT22;3869;48.406;10.774;2023-04-15T00:40:44;6.30;99.90
7654;DHT22;3869;48.406;10.774;2023-04-15T00:43:12;6.30;99.90
7654;DHT22;3869;48.406;10.774;2023-04-15T00:45:42;6.30;99.90
7654;DHT22;3869;48.406;10.774;2023-04-15T00:48:10;6.30;99.90
7654;DHT22;3869;48.406;10.774;2023-04-15T00:50:38;6.30;99.90
7654;DHT22;3869;48.406;10.774;2023-04-15T00:53:06;6.20;99.90
7654;DHT22;3869;48.406;10.774;2023-04-15T00:55:35;6.10;99.90
7654;DHT22;3869;48.406;10.774;2023-04-15T00:58:04;6.10;99.90
7654;DHT22;3869;48.406;10.774;2023-04-15T01:00:32;6.00;99.90
7654;DHT22;3869;48.406;10.774;2023-04-15T01:03:00;6.00;99.90
7654;DHT22;3869;48.406;10.774;2023-04-15T01:05:29;6.00;99.90
7654;DHT22;3869;48.406;10.774;2023-04-15T01:07:57;6.00;99.90
7654;DHT22;3869;48.406;10.774;2023-04-15T01:10:25;6.00;99.90
7654;DHT22;3869;48.406;10.774;2023-04-15T01:12:54;6.00;99.90
7654;DHT22;3869;48.406;10.774;2023-04-15T01:15:24;6.00;99.90
7654;DHT22;3869;48.406;10.774;2023-04-15T01:17:52;6.00;99.90
7654;DHT22;3869;48.406;10.774;2023-04-15T01:20:20;6.00;99.90
7654;DHT22;3869;48.406;10.774;2023-04-15T01:22:49;6.00;99.90
7654;DHT22;3869;48.406;10.774;2023-04-15T01:25:24;6.00;99.90
7654;DHT22;3869;48.406;10.774;2023-04-15T01:27:54;6.00;99.90
7654;DHT22;3869;48.406;10.774;2023-04-15T01:30:21;6.00;99.90
7654;DHT22;3869;48.406;10.774;2023-04-15T01:32:50;6.00;99.90
7654;DHT22;3869;48.406;10.774;2023-04-15T01:35:18;5.90;99.90
7654;DHT22;3869;48.406;10.774;2023-04-15T01:37:46;5.80;99.90
7654;DHT22;3869;48.406;10.774;2023-04-15T01:40:15;5.80;99.90
7654;DHT22;3869;48.406;10.774;2023-04-15T01:42:44;5.80;99.90
7654;DHT22;3869;48.406;10.774;2023-04-15T01:45:12;5.70;99.90
7654;DHT22;3869;48.406;10.774;2023-04-15T01:47:40;5.80;99.90
7654;DHT22;3869;48.406;10.774;2023-04-15T01:50:09;5.70;99.90
7654;DHT22;3869;48.406;10.774;2023-04-15T01:52:37;5.80;99.90
7654;DHT22;3869;48.406;10.774;2023-04-15T01:55:06;5.80;99.90
7654;DHT22;3869;48.406;10.774;2023-04-15T01:57:35;5.80;99.90
7654;DHT22;3869;48.406;10.774;2023-04-15T02:00:06;5.90;99.90
7654;DHT22;3869;48.406;10.774;2023-04-15T02:02:34;5.90;99.90
7654;DHT22;3869;48.406;10.774;2023-04-15T02:05:02;5.90;99.90
7654;DHT22;3869;48.406;10.774;2023-04-15T02:07:31;5.90;99.90
7654;DHT22;3869;48.406;10.774;2023-04-15T02:09:59;5.90;99.90
7654;DHT22;3869;48.406;10.774;2023-04-15T02:12:27;6.00;99.90
7654;DHT22;3869;48.406;10.774;2023-04-15T02:14:55;6.00;99.90
7654;DHT22;3869;48.406;10.774;2023-04-15T02:17:24;6.00;99.90
7654;DHT22;3869;48.406;10.774;2023-04-15T02:19:54;6.00;99.90
7654;DHT22;3869;48.406;10.774;2023-04-15T02:22:22;6.00;99.90
7654;DHT22;3869;48.406;10.774;2023-04-15T02:24:50;6.10;99.90
7654;DHT22;3869;48.406;10.774;2023-04-15T02:27:18;6.10;99.90
7654;DHT22;3869;48.406;10.774;2023-04-15T02:29:46;6.10;99.90
7654;DHT22;3869;48.406;10.774;2023-04-15T02:32:16;6.10;99.90
7654;DHT22;3869;48.406;10.774;2023-04-15T02:34:45;6.10;99.90
7654;DHT22;3869;48.406;10.774;2023-04-15T02:37:13;6.10;99.90
7654;DHT22;3869;48.406;10.774;2023-04-15T02:39:41;6.10;99.90
7654;DHT22;3869;48.406;10.774;2023-04-15T02:42:09;6.10;99.90
7654;DHT22;3869;48.406;10.774;2023-04-15T02:44:38;6.10;99.90
7654;DHT22;3869;48.406;10.774;2023-04-15T02:47:06;6.10;99.90
7654;DHT22;3869;48.406;10.774;2023-04-15T02:49:34;6.10;99.90
7654;DHT22;3869;48.406;10.774;2023-04-15T02:52:04;6.10;99.90
7654;DHT22;3869;48.406;10.774;2023-04-15T02:54:32;6.10;99.90
7654;DHT22;3869;48.406;10.774;2023-04-15T02:57:00;6.10;99.90
7654;DHT22;3869;48.406;10.774;2023-04-15T02:59:28;6.00;99.90
7654;DHT22;3869;48.406;10.774;2023-04-15T03:01:56;6.10;99.90
7654;DHT22;3869;48.406;10.774;2023-04-15T03:04:26;6.10;99.90
7654;DHT22;3869;48.406;10.774;2023-04-15T03:06:55;6.10;99.90
7654;DHT22;3869;48.406;10.774;2023-04-15T03:09:25;6.10;99.90
7654;DHT22;3869;48.406;10.774;2023-04-15T03:11:53;6.20;99.90
7654;DHT22;3869;48.406;10.774;2023-04-15T03:14:22;6.10;99.90
7654;DHT22;3869;48.406;10.774;2023-04-15T03:16:50;6.10;99.90
7654;DHT22;3869;48.406;10.774;2023-04-15T03:19:18;6.10;99.90
7654;DHT22;3869;48.406;10.774;2023-04-15T03:21:46;6.10;99.90
7654;DHT22;3869;48.406;10.774;2023-04-15T03:24:14;6.00;99.90
7654;DHT22;3869;48.406;10.774;2023-04-15T03:26:44;6.10;99.90
7654;DHT22;3869;48.406;10.774;2023-04-15T03:29:12;6.00;99.90
7654;DHT22;3869;48.406;10.774;2023-04-15T03:31:40;5.90;99.90
7654;DHT22;3869;48.406;10.774;2023-04-15T03:34:08;5.90;99.90
7654;DHT22;3869;48.406;10.774;2023-04-15T03:36:36;5.90;99.90
7654;DHT22;3869;48.406;10.774;2023-04-15T03:39:04;5.90;99.90
7654;DHT22;3869;48.406;10.774;2023-04-15T03:41:32;6.00;99.90
7654;DHT22;3869;48.406;10.774;2023-04-15T03:44:01;5.90;99.90
7654;DHT22;3869;48.406;10.774;2023-04-15T03:46:29;5.90;99.90
7654;DHT22;3869;48.406;10.774;2023-04-15T03:48:58;5.90;99.90
7654;DHT22;3869;48.406;10.774;2023-04-15T03:51:26;5.90;99.90
7654;DHT22;3869;48.406;10.774;2023-04-15T03:53:54;5.90;99.90
7654;DHT22;3869;48.406;10.774;2023-04-15T03:56:22;5.90;99.90
7654;DHT22;3869;48.406;10.774;2023-04-15T03:58:50;5.90;99.90
7654;DHT22;3869;48.406;10.774;2023-04-15T04:01:19;5.90;99.90
7654;DHT22;3869;48.406;10.774;2023-04-15T04:03:47;5.90;99.90
7654;DHT22;3869;48.406;10.774;2023-04-15T04:06:16;5.80;99.90
7654;DHT22;3869;48.406;10.774;2023-04-15T04:08:43;5.80;99.90
7654;DHT22;3869;48.406;10.774;2023-04-15T04:11:11;5.80;99.90
7654;DHT22;3869;48.406;10.774;2023-04-15T04:13:39;5.70;99.90
7654;DHT22;3869;48.406;10.774;2023-04-15T04:16:07;5.70;99.90
7654;DHT22;3869;48.406;10.774;2023-04-15T04:18:37;5.60;99.90
7654;DHT22;3869;48.406;10.774;2023-04-15T04:21:05;5.60;99.90
7654;DHT22;3869;48.406;10.774;2023-04-15T04:23:33;5.60;99.90
7654;DHT22;3869;48.406;10.774;2023-04-15T04:26:01;5.40;99.90
7654;DHT22;3869;48.406;10.774;2023-04-15T04:28:29;5.40;99.90
7654;DHT22;3869;48.406;10.774;2023-04-15T04:30:57;5.30;99.90
7654;DHT22;3869;48.406;10.774;2023-04-15T04:33:25;5.30;99.90
7654;DHT22;3869;48.406;10.774;2023-04-15T04:35:54;5.40;99.90
7654;DHT22;3869;48.406;10.774;2023-04-15T04:38:22;5.40;99.90
7654;DHT22;3869;48.406;10.774;2023-04-15T04:40:50;5.40;99.90
7654;DHT22;3869;48.406;10.774;2023-04-15T04:43:18;5.40;99.90
7654;DHT22;3869;48.406;10.774;2023-04-15T04:45:46;5.40;99.90
7654;DHT22;3869;48.406;10.774;2023-04-15T04:48:14;5.40;99.90
7654;DHT22;3869;48.406;10.774;2023-04-15T04:50:43;5.40;99.90
7654;DHT22;3869;48.406;10.774;2023-04-15T04:53:14;5.30;99.90
7654;DHT22;3869;48.406;10.774;2023-04-15T04:55:42;5.40;99.90
7654;DHT22;3869;48.406;10.774;2023-04-15T04:58:09;5.30;99.90
7654;DHT22;3869;48.406;10.774;2023-04-15T05:00:39;5.40;99.90
7654;DHT22;3869;48.406;10.774;2023-04-15T05:03:07;5.40;99.90
7654;DHT22;3869;48.406;10.774;2023-04-15T05:05:36;5.50;99.90
7654;DHT22;3869;48.406;10.774;2023-04-15T05:08:05;5.50;99.90
7654;DHT22;3869;48.406;10.774;2023-04-15T05:10:35;5.60;99.90
7654;DHT22;3869;48.406;10.774;2023-04-15T05:13:03;5.60;99.90
7654;DHT22;3869;48.406;10.774;2023-04-15T05:15:31;5.70;99.90
7654;DHT22;3869;48.406;10.774;2023-04-15T05:18:00;5.70;99.90
7654;DHT22;3869;48.406;10.774;2023-04-15T05:20:28;5.70;99.90
7654;DHT22;3869;48.406;10.774;2023-04-15T05:22:56;5.60;99.90
7654;DHT22;3869;48.406;10.774;2023-04-15T05:25:24;5.70;99.90
7654;DHT22;3869;48.406;10.774;2023-04-15T05:27:54;5.90;99.90
7654;DHT22;3869;48.406;10.774;2023-04-15T05:30:22;6.00;99.90
7654;DHT22;3869;48.406;10.774;2023-04-15T05:32:49;6.00;99.90
7654;DHT22;3869;48.406;10.774;2023-04-15T05:35:18;6.10;99.90
7654;DHT22;3869;48.406;10.774;2023-04-15T05:37:46;6.20;99.90
7654;DHT22;3869;48.406;10.774;2023-04-15T05:40:14;6.20;99.90
7654;DHT22;3869;48.406;10.774;2023-04-15T05:42:42;6.30;99.90
7654;DHT22;3869;48.406;10.774;2023-04-15T05:45:11;6.30;99.90
7654;DHT22;3869;48.406;10.774;2023-04-15T05:47:39;6.30;99.90
7654;DHT22;3869;48.406;10.774;2023-04-15T05:50:08;6.30;99.90
7654;DHT22;3869;48.406;10.774;2023-04-15T05:52:36;6.40;99.90
7654;DHT22;3869;48.406;10.774;2023-04-15T05:55:04;6.40;99.90
7654;DHT22;3869;48.406;10.774;2023-04-15T05:57:32;6.40;99.90
7654;DHT22;3869;48.406;10.774;2023-04-15T06:00:00;6.50;99.90
7654;DHT22;3869;48.406;10.774;2023-04-15T06:02:30;6.50;99.90
7654;DHT22;3869;48.406;10.774;2023-04-15T06:04:58;6.50;99.90
7654;DHT22;3869;48.406;10.774;2023-04-15T06:07:26;6.50;99.90
7654;DHT22;3869;48.406;10.774;2023-04-15T06:09:54;6.60;99.90
7654;DHT22;3869;48.406;10.774;2023-04-15T06:12:22;6.60;99.90
7654;DHT22;3869;48.406;10.774;2023-04-15T06:14:50;6.60;99.90
7654;DHT22;3869;48.406;10.774;2023-04-15T06:17:18;6.60;99.90
7654;DHT22;3869;48.406;10.774;2023-04-15T06:19:47;6.60;99.90
7654;DHT22;3869;48.406;10.774;2023-04-15T06:22:17;6.70;99.90
7654;DHT22;3869;48.406;10.774;2023-04-15T06:24:45;6.70;99.90
7654;DHT22;3869;48.406;10.774;2023-04-15T06:27:13;6.70;99.90
7654;DHT22;3869;48.406;10.774;2023-04-15T06:29:41;6.70;99.90
7654;DHT22;3869;48.406;10.774;2023-04-15T06:32:09;6.70;99.90
7654;DHT22;3869;48.406;10.774;2023-04-15T06:34:37;6.70;99.90
7654;DHT22;3869;48.406;10.774;2023-04-15T06:37:06;6.70;99.90
7654;DHT22;3869;48.406;10.774;2023-04-15T06:39:35;6.70;99.90
7654;DHT22;3869;48.406;10.774;2023-04-15T06:42:03;6.70;99.90
7654;DHT22;3869;48.406;10.774;2023-04-15T06:44:32;6.70;99.90
7654;DHT22;3869;48.406;10.774;2023-04-15T06:47:00;6.70;99.90
7654;DHT22;3869;48.406;10.774;2023-04-15T06:49:28;6.70;99.90
7654;DHT22;3869;48.406;10.774;2023-04-15T06:51:56;6.70;99.90
7654;DHT22;3869;48.406;10.774;2023-04-15T06:54:25;6.80;99.90
7654;DHT22;3869;48.406;10.774;2023-04-15T06:56:53;6.80;99.90
7654;DHT22;3869;48.406;10.774;2023-04-15T06:59:21;6.80;99.90
7654;DHT22;3869;48.406;10.774;2023-04-15T07:01:49;6.90;99.90
7654;DHT22;3869;48.406;10.774;2023-04-15T07:04:17;6.90;99.90
7654;DHT22;3869;48.406;10.774;2023-04-15T07:06:46;7.00;99.90
7654;DHT22;3869;48.406;10.774;2023-04-15T07:09:14;7.00;99.90
7654;DHT22;3869;48.406;10.774;2023-04-15T07:11:43;7.00;99.90
7654;DHT22;3869;48.406;10.774;2023-04-15T07:14:11;7.00;99.90
7654;DHT22;3869;48.406;10.774;2023-04-15T07:16:39;7.10;99.90
7654;DHT22;3869;48.406;10.774;2023-04-15T07:19:07;7.20;99.90
7654;DHT22;3869;48.406;10.774;2023-04-15T07:21:35;7.20;99.90
7654;DHT22;3869;48.406;10.774;2023-04-15T07:24:05;7.20;99.90
7654;DHT22;3869;48.406;10.774;2023-04-15T07:26:33;7.30;99.90
7654;DHT22;3869;48.406;10.774;2023-04-15T07:29:02;7.30;99.90
7654;DHT22;3869;48.406;10.774;2023-04-15T07:31:30;7.30;99.90
7654;DHT22;3869;48.406;10.774;2023-04-15T07:33:58;7.40;99.90
7654;DHT22;3869;48.406;10.774;2023-04-15T07:36:26;7.30;99.90
7654;DHT22;3869;48.406;10.774;2023-04-15T07:38:55;7.40;99.90
7654;DHT22;3869;48.406;10.774;2023-04-15T07:41:23;7.50;99.90
7654;DHT22;3869;48.406;10.774;2023-04-15T07:43:51;7.50;99.90
7654;DHT22;3869;48.406;10.774;2023-04-15T07:46:20;7.70;99.90
7654;DHT22;3869;48.406;10.774;2023-04-15T07:48:49;7.70;99.90
7654;DHT22;3869;48.406;10.774;2023-04-15T07:51:18;7.80;99.90
7654;DHT22;3869;48.406;10.774;2023-04-15T07:53:46;7.90;99.90
7654;DHT22;3869;48.406;10.774;2023-04-15T07:56:15;8.00;99.90
7654;DHT22;3869;48.406;10.774;2023-04-15T07:58:43;8.10;99.90
7654;DHT22;3869;48.406;10.774;2023-04-15T08:01:11;8.30;99.90
7654;DHT22;3869;48.406;10.774;2023-04-15T08:03:40;8.40;99.90
7654;DHT22;3869;48.406;10.774;2023-04-15T08:06:08;8.50;99.90
7654;DHT22;3869;48.406;10.774;2023-04-15T08:08:36;8.50;99.90
7654;DHT22;3869;48.406;10.774;2023-04-15T08:11:04;8.60;99.90
7654;DHT22;3869;48.406;10.774;2023-04-15T08:13:32;8.70;99.90
7654;DHT22;3869;48.406;10.774;2023-04-15T08:16:15;8.80;99.90
7654;DHT22;3869;48.406;10.774;2023-04-15T08:18:45;8.90;99.90
7654;DHT22;3869;48.406;10.774;2023-04-15T08:21:14;9.00;99.90
7654;DHT22;3869;48.406;10.774;2023-04-15T08:23:42;9.00;99.90
7654;DHT22;3869;48.406;10.774;2023-04-15T08:26:10;9.00;99.90
7654;DHT22;3869;48.406;10.774;2023-04-15T08:28:40;9.00;99.90
7654;DHT22;3869;48.406;10.774;2023-04-15T08:31:08;9.10;99.90
7654;DHT22;3869;48.406;10.774;2023-04-15T08:33:36;9.30;99.90
7654;DHT22;3869;48.406;10.774;2023-04-15T08:36:06;9.40;99.90
7654;DHT22;3869;48.406;10.774;2023-04-15T08:38:35;9.50;99.90
7654;DHT22;3869;48.406;10.774;2023-04-15T08:41:08;9.60;99.90
7654;DHT22;3869;48.406;10.774;2023-04-15T08:43:42;9.70;99.90
7654;DHT22;3869;48.406;10.774;2023-04-15T08:46:13;9.80;99.90
7654;DHT22;3869;48.406;10.774;2023-04-15T08:48:43;9.90;99.90
7654;DHT22;3869;48.406;10.774;2023-04-15T08:51:15;10.00;99.90
7654;DHT22;3869;48.406;10.774;2023-04-15T08:53:43;10.00;99.90
7654;DHT22;3869;48.406;10.774;2023-04-15T08:56:14;10.10;99.90
7654;DHT22;3869;48.406;10.774;2023-04-15T08:58:43;10.20;99.90
7654;DHT22;3869;48.406;10.774;2023-04-15T09:01:12;10.20;99.90
7654;DHT22;3869;48.406;10.774;2023-04-15T09:03:40;10.40;99.90
7654;DHT22;3869;48.406;10.774;2023-04-15T09:06:09;10.50;99.90
7654;DHT22;3869;48.406;10.774;2023-04-15T09:08:38;10.60;99.90
7654;DHT22;3869;48.406;10.774;2023-04-15T09:11:07;10.70;99.90
7654;DHT22;3869;48.406;10.774;2023-04-15T09:13:34;10.80;99.90
7654;DHT22;3869;48.406;10.774;2023-04-15T09:16:04;10.90;99.90
7654;DHT22;3869;48.406;10.774;2023-04-15T09:18:35;10.90;99.90
7654;DHT22;3869;48.406;10.774;2023-04-15T09:21:04;11.00;99.90
7654;DHT22;3869;48.406;10.774;2023-04-15T09:23:34;11.10;99.90
7654;DHT22;3869;48.406;10.774;2023-04-15T09:26:04;11.20;99.90
7654;DHT22;3869;48.406;10.774;2023-04-15T09:28:33;11.30;99.90
7654;DHT22;3869;48.406;10.774;2023-04-15T09:31:07;11.30;99.90
7654;DHT22;3869;48.406;10.774;2023-04-15T09:33:53;11.20;99.90
7654;DHT22;3869;48.406;10.774;2023-04-15T09:36:21;11.40;99.90
7654;DHT22;3869;48.406;10.774;2023-04-15T09:38:53;11.40;99.90
7654;DHT22;3869;48.406;10.774;2023-04-15T09:41:24;11.40;99.90
7654;DHT22;3869;48.406;10.774;2023-04-15T09:43:52;11.30;99.90
7654;DHT22;3869;48.406;10.774;2023-04-15T09:46:39;11.30;99.90
7654;DHT22;3869;48.406;10.774;2023-04-15T09:49:08;11.40;99.90
7654;DHT22;3869;48.406;10.774;2023-04-15T09:51:36;11.50;99.90
7654;DHT22;3869;48.406;10.774;2023-04-15T09:54:05;11.60;99.90
7654;DHT22;3869;48.406;10.774;2023-04-15T09:56:36;11.60;99.90
7654;DHT22;3869;48.406;10.774;2023-04-15T09:59:07;11.70;99.90
7654;DHT22;3869;48.406;10.774;2023-04-15T10:01:35;11.80;99.90
7654;DHT22;3869;48.406;10.774;2023-04-15T10:04:04;11.90;99.90
7654;DHT22;3869;48.406;10.774;2023-04-15T10:06:33;11.80;99.90
7654;DHT22;3869;48.406;10.774;2023-04-15T10:09:01;12.00;99.90
7654;DHT22;3869;48.406;10.774;2023-04-15T10:11:30;12.10;99.90
7654;DHT22;3869;48.406;10.774;2023-04-15T10:14:00;12.20;99.90
7654;DHT22;3869;48.406;10.774;2023-04-15T10:16:31;12.20;99.90
7654;DHT22;3869;48.406;10.774;2023-04-15T10:19:01;12.20;99.60
7654;DHT22;3869;48.406;10.774;2023-04-15T10:21:30;12.10;99.70
7654;DHT22;3869;48.406;10.774;2023-04-15T10:23:58;12.20;99.90
7654;DHT22;3869;48.406;10.774;2023-04-15T10:26:27;12.20;99.90
7654;DHT22;3869;48.406;10.774;2023-04-15T10:28:57;12.20;99.40
7654;DHT22;3869;48.406;10.774;2023-04-15T10:31:28;12.10;99.30
7654;DHT22;3869;48.406;10.774;2023-04-15T10:33:56;12.20;99.40
7654;DHT22;3869;48.406;10.774;2023-04-15T10:36:30;12.30;99.70
7654;DHT22;3869;48.406;10.774;2023-04-15T10:38:58;12.30;99.00
7654;DHT22;3869;48.406;10.774;2023-04-15T10:41:27;12.30;99.70
7654;DHT22;3869;48.406;10.774;2023-04-15T10:44:00;12.40;99.50
7654;DHT22;3869;48.406;10.774;2023-04-15T10:46:36;12.50;98.70
7654;DHT22;3869;48.406;10.774;2023-04-15T10:49:07;12.60;98.90
7654;DHT22;3869;48.406;10.774;2023-04-15T10:51:37;12.40;98.20
7654;DHT22;3869;48.406;10.774;2023-04-15T10:54:08;12.30;98.90
7654;DHT22;3869;48.406;10.774;2023-04-15T10:56:41;12.10;96.90
7654;DHT22;3869;48.406;10.774;2023-04-15T10:59:10;11.90;96.70
7654;DHT22;3869;48.406;10.774;2023-04-15T11:01:53;11.70;96.30
7654;DHT22;3869;48.406;10.774;2023-04-15T11:04:50;11.50;95.30
7654;DHT22;3869;48.406;10.774;2023-04-15T11:07:39;11.50;95.30
7654;DHT22;3869;48.406;10.774;2023-04-15T11:13:25;11.70;94.30
7654;DHT22;3869;48.406;10.774;2023-04-15T11:15:59;11.80;94.10
7654;DHT22;3869;48.406;10.774;2023-04-15T11:18:31;11.90;94.00
7654;DHT22;3869;48.406;10.774;2023-04-15T11:21:01;11.90;93.90
7654;DHT22;3869;48.406;10.774;2023-04-15T11:23:32;11.90;93.60
7654;DHT22;3869;48.406;10.774;2023-04-15T11:26:01;12.00;94.40
7654;DHT22;3869;48.406;10.774;2023-04-15T11:28:31;11.80;93.60
7654;DHT22;3869;48.406;10.774;2023-04-15T11:31:05;11.80;94.20
7654;DHT22;3869;48.406;10.774;2023-04-15T11:33:35;11.80;94.60
7654;DHT22;3869;48.406;10.774;2023-04-15T11:36:04;11.80;94.30
7654;DHT22;3869;48.406;10.774;2023-04-15T11:38:33;11.70;94.00
7654;DHT22;3869;48.406;10.774;2023-04-15T11:41:01;11.70;94.40
7654;DHT22;3869;48.406;10.774;2023-04-15T11:43:31;11.70;93.30
7654;DHT22;3869;48.406;10.774;2023-04-15T11:46:01;11.70;93.80
7654;DHT22;3869;48.406;10.774;2023-04-15T11:48:31;11.70;93.30
7654;DHT22;3869;48.406;10.774;2023-04-15T11:51:03;11.60;93.00
7654;DHT22;3869;48.406;10.774;2023-04-15T11:53:40;11.50;94.10
7654;DHT22;3869;48.406;10.774;2023-04-15T11:56:09;11.30;94.00
7654;DHT22;3869;48.406;10.774;2023-04-15T11:58:37;11.30;94.50
7654;DHT22;3869;48.406;10.774;2023-04-15T12:01:06;11.40;94.70
7654;DHT22;3869;48.406;10.774;2023-04-15T12:03:38;11.50;95.00
7654;DHT22;3869;48.406;10.774;2023-04-15T12:06:16;11.50;94.80
7654;DHT22;3869;48.406;10.774;2023-04-15T12:08:55;11.70;95.60
7654;DHT22;3869;48.406;10.774;2023-04-15T12:11:32;11.70;95.50
7654;DHT22;3869;48.406;10.774;2023-04-15T12:14:06;11.70;95.20
7654;DHT22;3869;48.406;10.774;2023-04-15T12:16:37;11.50;95.00
7654;DHT22;3869;48.406;10.774;2023-04-15T12:19:16;11.40;95.10
7654;DHT22;3869;48.406;10.774;2023-04-15T12:21:47;11.30;95.30
7654;DHT22;3869;48.406;10.774;2023-04-15T12:24:20;11.30;95.50
7654;DHT22;3869;48.406;10.774;2023-04-15T12:26:50;11.20;95.70
7654;DHT22;3869;48.406;10.774;2023-04-15T12:29:19;11.10;96.10
7654;DHT22;3869;48.406;10.774;2023-04-15T12:31:49;10.90;96.30
7654;DHT22;3869;48.406;10.774;2023-04-15T12:34:18;10.80;96.70
7654;DHT22;3869;48.406;10.774;2023-04-15T12:36:53;10.70;97.10
7654;DHT22;3869;48.406;10.774;2023-04-15T12:39:22;10.80;97.60
7654;DHT22;3869;48.406;10.774;2023-04-15T12:41:50;10.80;97.60
7654;DHT22;3869;48.406;10.774;2023-04-15T12:44:21;10.70;97.40
7654;DHT22;3869;48.406;10.774;2023-04-15T12:46:50;10.80;97.90
7654;DHT22;3869;48.406;10.774;2023-04-15T12:49:19;10.80;97.00
7654;DHT22;3869;48.406;10.774;2023-04-15T12:51:48;10.80;96.50
7654;DHT22;3869;48.406;10.774;2023-04-15T12:54:18;10.80;96.30
7654;DHT22;3869;48.406;10.774;2023-04-15T12:56:49;10.80;95.80
7654;DHT22;3869;48.406;10.774;2023-04-15T12:59:17;10.90;95.90
7654;DHT22;3869;48.406;10.774;2023-04-15T13:01:45;10.80;94.90
7654;DHT22;3869;48.406;10.774;2023-04-15T13:04:14;10.80;95.20
7654;DHT22;3869;48.406;10.774;2023-04-15T13:06:43;10.80;95.50
7654;DHT22;3869;48.406;10.774;2023-04-15T13:09:11;10.90;95.60
7654;DHT22;3869;48.406;10.774;2023-04-15T13:11:40;11.00;95.80
7654;DHT22;3869;48.406;10.774;2023-04-15T13:14:08;11.00;95.40
7654;DHT22;3869;48.406;10.774;2023-04-15T13:16:37;11.00;95.60
7654;DHT22;3869;48.406;10.774;2023-04-15T13:19:05;11.10;95.60
7654;DHT22;3869;48.406;10.774;2023-04-15T13:21:33;11.00;95.00
7654;DHT22;3869;48.406;10.774;2023-04-15T13:24:02;11.10;95.20
7654;DHT22;3869;48.406;10.774;2023-04-15T13:26:33;11.10;95.20
7654;DHT22;3869;48.406;10.774;2023-04-15T13:29:03;11.00;95.00
7654;DHT22;3869;48.406;10.774;2023-04-15T13:31:31;10.90;94.50
7654;DHT22;3869;48.406;10.774;2023-04-15T13:33:59;10.90;94.80
7654;DHT22;3869;48.406;10.774;2023-04-15T13:36:27;10.80;95.10
7654;DHT22;3869;48.406;10.774;2023-04-15T13:38:54;10.70;95.60
7654;DHT22;3869;48.406;10.774;2023-04-15T13:41:23;10.50;95.90
7654;DHT22;3869;48.406;10.774;2023-04-15T13:43:51;10.50;96.50
7654;DHT22;3869;48.406;10.774;2023-04-15T13:46:20;10.60;96.50
7654;DHT22;3869;48.406;10.774;2023-04-15T13:48:48;10.60;96.90
7654;DHT22;3869;48.406;10.774;2023-04-15T13:51:16;10.60;96.10
7654;DHT22;3869;48.406;10.774;2023-04-15T13:53:44;10.50;96.60
7654;DHT22;3869;48.406;10.774;2023-04-15T13:56:12;10.40;96.20
7654;DHT22;3869;48.406;10.774;2023-04-15T13:58:40;10.50;96.40
7654;DHT22;3869;48.406;10.774;2023-04-15T14:01:08;10.50;96.70
7654;DHT22;3869;48.406;10.774;2023-04-15T14:03:38;10.30;96.60
7654;DHT22;3869;48.406;10.774;2023-04-15T14:06:06;10.30;96.80
7654;DHT22;3869;48.406;10.774;2023-04-15T14:08:34;10.30;97.40
7654;DHT22;3869;48.406;10.774;2023-04-15T14:11:02;10.10;97.20
7654;DHT22;3869;48.406;10.774;2023-04-15T14:13:30;9.90;98.50
7654;DHT22;3869;48.406;10.774;2023-04-15T14:15:58;9.90;98.40
7654;DHT22;3869;48.406;10.774;2023-04-15T14:18:26;9.80;98.90
7654;DHT22;3869;48.406;10.774;2023-04-15T14:20:55;9.80;98.20
7654;DHT22;3869;48.406;10.774;2023-04-15T14:23:23;9.90;98.60
7654;DHT22;3869;48.406;10.774;2023-04-15T14:25:52;10.10;97.70
7654;DHT22;3869;48.406;10.774;2023-04-15T14:28:20;10.10;97.20
7654;DHT22;3869;48.406;10.774;2023-04-15T14:30:48;10.20;98.00
7654;DHT22;3869;48.406;10.774;2023-04-15T14:33:16;10.30;98.10
7654;DHT22;3869;48.406;10.774;2023-04-15T14:35:44;10.20;98.40
7654;DHT22;3869;48.406;10.774;2023-04-15T14:38:13;10.00;98.80
7654;DHT22;3869;48.406;10.774;2023-04-15T14:40:41;9.80;99.90
7654;DHT22;3869;48.406;10.774;2023-04-15T14:43:10;9.70;99.90
7654;DHT22;3869;48.406;10.774;2023-04-15T14:45:38;9.60;99.90
7654;DHT22;3869;48.406;10.774;2023-04-15T14:48:10;9.60;99.90
7654;DHT22;3869;48.406;10.774;2023-04-15T14:50:39;9.40;99.90
7654;DHT22;3869;48.406;10.774;2023-04-15T14:53:07;9.40;99.90
7654;DHT22;3869;48.406;10.774;2023-04-15T14:55:36;9.30;99.90
7654;DHT22;3869;48.406;10.774;2023-04-15T14:58:05;9.20;99.90
7654;DHT22;3869;48.406;10.774;2023-04-15T15:00:34;9.10;99.90
7654;DHT22;3869;48.406;10.774;2023-04-15T15:03:05;9.20;99.90
7654;DHT22;3869;48.406;10.774;2023-04-15T15:05:38;9.30;99.90
7654;DHT22;3869;48.406;10.774;2023-04-15T15:08:07;9.20;99.90
7654;DHT22;3869;48.406;10.774;2023-04-15T15:10:37;9.20;99.90
7654;DHT22;3869;48.406;10.774;2023-04-15T15:13:16;9.10;99.90
7654;DHT22;3869;48.406;10.774;2023-04-15T15:15:44;9.00;99.90
7654;DHT22;3869;48.406;10.774;2023-04-15T15:18:12;8.90;99.90
7654;DHT22;3869;48.406;10.774;2023-04-15T15:20:40;8.80;99.90
7654;DHT22;3869;48.406;10.774;2023-04-15T15:23:08;8.80;99.90
7654;DHT22;3869;48.406;10.774;2023-04-15T15:25:37;8.80;99.90
7654;DHT22;3869;48.406;10.774;2023-04-15T15:28:05;8.70;99.90
7654;DHT22;3869;48.406;10.774;2023-04-15T15:30:33;8.70;99.90
7654;DHT22;3869;48.406;10.774;2023-04-15T15:33:01;8.60;99.90
7654;DHT22;3869;48.406;10.774;2023-04-15T15:35:31;8.70;99.90
7654;DHT22;3869;48.406;10.774;2023-04-15T15:37:59;8.70;99.90
7654;DHT22;3869;48.406;10.774;2023-04-15T15:40:27;8.80;99.90
7654;DHT22;3869;48.406;10.774;2023-04-15T15:42:56;8.80;99.90
7654;DHT22;3869;48.406;10.774;2023-04-15T15:45:24;8.80;99.90
7654;DHT22;3869;48.406;10.774;2023-04-15T15:47:52;8.80;99.90
7654;DHT22;3869;48.406;10.774;2023-04-15T15:50:22;8.80;99.90
7654;DHT22;3869;48.406;10.774;2023-04-15T15:52:50;8.70;99.90
7654;DHT22;3869;48.406;10.774;2023-04-15T15:55:18;8.70;99.90
7654;DHT22;3869;48.406;10.774;2023-04-15T15:57:46;8.60;99.90
7654;DHT22;3869;48.406;10.774;2023-04-15T16:00:17;8.60;99.90
7654;DHT22;3869;48.406;10.774;2023-04-15T16:02:45;8.70;99.90
7654;DHT22;3869;48.406;10.774;2023-04-15T16:05:16;8.80;99.90
7654;DHT22;3869;48.406;10.774;2023-04-15T16:07:43;8.80;99.90
7654;DHT22;3869;48.406;10.774;2023-04-15T16:10:11;8.90;99.90
7654;DHT22;3869;48.406;10.774;2023-04-15T16:12:40;8.90;99.90